Time;durP1;ratioP1;P1;durP2;ratioP2;P2;SDS_P1;SDS_P2;PMS_P1;PMS_P2;Temp;Humidity;BMP_temperature;BMP_pressure;BME280_temperature;BME280_humidity;BME280_pressure;Samples;Min_cycle;Max_cycle;Signal;HPM_P1;HPM_P2
2023/07/04 00:02:08;;;;;;;2.73;1.50;;;;;;;;;;4972964;28;20236;-88
2023/07/04 00:04:39;;;;;;;2.67;1.20;;;;;;;;;;4974076;28;20265;-88
2023/07/04 00:07:07;;;;;;;1.57;0.70;;;;;;;;;;4973789;28;20205;-88
2023/07/04 00:09:37;;;;;;;1.03;0.93;;;;;;;;;;4973935;28;20253;-87
2023/07/04 00:12:08;;;;;;;2.90;0.93;;;;;;;;;;4973392;28;20237;-87
2023/07/04 00:14:36;;;;;;;1.63;0.80;;;;;;;;;;4973803;28;20236;-87
2023/07/04 00:17:06;;;;;;;3.10;2.67;;;;;;;;;;4972973;28;20216;-88
2023/07/04 00:19:34;;;;;;;2.07;0.93;;;;;;;;;;4973775;28;20290;-88
2023/07/04 00:22:04;;;;;;;3.73;1.20;;;;;;;;;;4973206;28;20258;-88
2023/07/04 00:24:32;;;;;;;3.67;1.37;;;;;;;;;;4973292;28;20243;-88
2023/07/04 00:27:02;;;;;;;1.70;1.03;;;;;;;;;;4972737;28;20204;-87
2023/07/04 00:29:31;;;;;;;0.80;0.77;;;;;;;;;;4973088;28;20204;-88
2023/07/04 00:32:01;;;;;;;0.90;0.90;;;;;;;;;;4972415;28;20305;-87
2023/07/04 00:34:29;;;;;;;0.40;0.40;;;;;;;;;;4973047;28;20205;-88
2023/07/04 00:36:59;;;;;;;0.80;0.80;;;;;;;;;;4973420;28;20207;-87
2023/07/04 00:39:28;;;;;;;1.10;0.90;;;;;;;;;;4973478;28;20214;-87
2023/07/04 00:41:56;;;;;;;0.80;0.80;;;;;;;;;;4973452;28;20197;-87
2023/07/04 00:44:30;;;;;;;1.20;0.60;;;;;;;;;;4972990;28;20210;-87
2023/07/04 00:47:06;;;;;;;0.80;0.80;;;;;;;;;;4973122;28;20208;-87
2023/07/04 00:49:42;;;;;;;2.73;1.20;;;;;;;;;;4973219;28;20216;-87
2023/07/04 00:52:12;;;;;;;1.57;1.47;;;;;;;;;;4972081;28;20250;-87
2023/07/04 00:54:43;;;;;;;3.70;1.27;;;;;;;;;;4973490;28;20200;-88
2023/07/04 00:57:14;;;;;;;1.33;1.23;;;;;;;;;;4972582;28;20204;-87
2023/07/04 00:59:45;;;;;;;2.20;1.13;;;;;;;;;;4972758;28;20216;-88
2023/07/04 01:02:15;;;;;;;0.83;0.60;;;;;;;;;;4971561;28;20239;-85
2023/07/04 01:04:44;;;;;;;1.23;1.00;;;;;;;;;;4972513;28;20296;-85
2023/07/04 01:07:17;;;;;;;0.60;0.60;;;;;;;;;;4972319;28;20205;-85
2023/07/04 01:09:47;;;;;;;1.03;0.93;;;;;;;;;;4972390;28;20205;-87
2023/07/04 01:12:18;;;;;;;3.40;1.43;;;;;;;;;;4972385;28;20224;-87
2023/07/04 01:14:48;;;;;;;0.70;0.70;;;;;;;;;;4972688;28;20205;-88
2023/07/04 01:17:17;;;;;;;1.27;0.90;;;;;;;;;;4973201;28;20203;-87
2023/07/04 01:19:46;;;;;;;1.90;1.20;;;;;;;;;;4972745;28;20194;-87
2023/07/04 01:22:19;;;;;;;2.13;0.87;;;;;;;;;;4972802;28;20248;-87
2023/07/04 01:24:55;;;;;;;3.97;1.30;;;;;;;;;;4972638;28;20236;-87
2023/07/04 01:27:26;;;;;;;1.80;1.13;;;;;;;;;;4971679;28;20458;-88
2023/07/04 01:30:00;;;;;;;0.63;0.63;;;;;;;;;;4972986;28;20205;-87
2023/07/04 01:32:41;;;;;;;3.70;1.53;;;;;;;;;;4972486;28;20219;-88
2023/07/04 01:35:14;;;;;;;0.60;0.60;;;;;;;;;;4971893;28;20200;-88
2023/07/04 01:37:43;;;;;;;2.10;1.00;;;;;;;;;;4972547;28;20209;-87
2023/07/04 01:40:12;;;;;;;1.17;0.80;;;;;;;;;;4972283;28;20209;-87
2023/07/04 01:42:44;;;;;;;0.80;0.80;;;;;;;;;;4972972;28;20205;-88
2023/07/04 01:45:13;;;;;;;1.17;1.00;;;;;;;;;;4971314;28;20204;-88
2023/07/04 01:47:41;;;;;;;2.33;1.37;;;;;;;;;;4972085;28;20201;-85
2023/07/04 01:50:11;;;;;;;0.80;0.80;;;;;;;;;;4971847;28;20203;-85
2023/07/04 01:52:41;;;;;;;2.03;1.47;;;;;;;;;;4970971;28;20232;-85
2023/07/04 01:55:10;;;;;;;3.07;1.70;;;;;;;;;;4971149;28;20200;-85
2023/07/04 01:57:39;;;;;;;2.83;1.30;;;;;;;;;;4971669;28;20206;-87
2023/07/04 02:00:10;;;;;;;1.83;1.20;;;;;;;;;;4972052;28;20227;-87
2023/07/04 02:02:39;;;;;;;2.73;1.37;;;;;;;;;;4970963;28;20239;-88
2023/07/04 02:05:08;;;;;;;4.63;1.30;;;;;;;;;;4971562;28;20243;-85
2023/07/04 02:07:37;;;;;;;3.87;1.67;;;;;;;;;;4971761;28;20208;-85
2023/07/04 02:10:06;;;;;;;0.60;0.60;;;;;;;;;;4971358;28;20204;-85
2023/07/04 02:12:35;;;;;;;1.93;0.97;;;;;;;;;;4971360;28;20246;-85
2023/07/04 02:15:03;;;;;;;0.60;0.60;;;;;;;;;;4971104;28;20196;-85
2023/07/04 02:17:33;;;;;;;2.30;1.10;;;;;;;;;;4971311;28;20205;-84
2023/07/04 02:20:03;;;;;;;1.80;1.17;;;;;;;;;;4970729;28;20254;-85
2023/07/04 02:22:32;;;;;;;1.03;0.93;;;;;;;;;;4971545;28;20228;-84
2023/07/04 02:25:02;;;;;;;0.70;0.70;;;;;;;;;;4970888;28;20303;-88
2023/07/04 02:27:31;;;;;;;4.00;2.37;;;;;;;;;;4970895;28;20228;-85
2023/07/04 02:29:59;;;;;;;1.07;1.00;;;;;;;;;;4971008;28;20208;-85
2023/07/04 02:32:28;;;;;;;4.90;0.97;;;;;;;;;;4971152;28;20231;-85
2023/07/04 02:34:58;;;;;;;0.80;0.80;;;;;;;;;;4970765;28;20235;-85
2023/07/04 02:37:27;;;;;;;4.20;1.37;;;;;;;;;;4970783;28;20204;-85
2023/07/04 02:39:57;;;;;;;1.50;1.23;;;;;;;;;;4970811;28;20299;-85
2023/07/04 02:42:25;;;;;;;5.67;1.23;;;;;;;;;;4970904;28;20270;-85
2023/07/04 02:44:54;;;;;;;5.00;1.13;;;;;;;;;;4970538;28;20207;-85
2023/07/04 02:47:26;;;;;;;0.73;0.73;;;;;;;;;;4970395;28;20203;-85
2023/07/04 02:49:54;;;;;;;4.27;0.77;;;;;;;;;;4970489;28;20205;-85
2023/07/04 02:52:25;;;;;;;0.70;0.70;;;;;;;;;;4971227;28;20233;-87
2023/07/04 02:54:53;;;;;;;1.40;1.13;;;;;;;;;;4970575;28;20216;-87
2023/07/04 02:57:23;;;;;;;0.80;0.80;;;;;;;;;;4970732;28;20213;-87
2023/07/04 02:59:52;;;;;;;2.63;0.80;;;;;;;;;;4970981;28;20204;-87
2023/07/04 03:02:21;;;;;;;1.33;0.80;;;;;;;;;;4970231;28;20283;-87
2023/07/04 03:04:51;;;;;;;0.67;0.63;;;;;;;;;;4971262;28;20201;-87
2023/07/04 03:07:20;;;;;;;0.63;0.63;;;;;;;;;;4971203;28;20208;-87
2023/07/04 03:09:50;;;;;;;1.70;1.27;;;;;;;;;;4970702;28;20203;-87
2023/07/04 03:12:19;;;;;;;1.80;0.97;;;;;;;;;;4970897;28;20209;-85
2023/07/04 03:14:47;;;;;;;2.87;1.50;;;;;;;;;;4970511;28;20231;-85
2023/07/04 03:17:16;;;;;;;1.27;1.10;;;;;;;;;;4970406;28;20220;-85
2023/07/04 03:19:44;;;;;;;1.90;1.30;;;;;;;;;;4969912;28;20211;-85
2023/07/04 03:22:13;;;;;;;2.53;2.00;;;;;;;;;;4969944;28;20204;-85
2023/07/04 03:24:41;;;;;;;3.10;1.10;;;;;;;;;;4970229;28;20204;-85
2023/07/04 03:27:11;;;;;;;1.00;0.90;;;;;;;;;;4970250;28;20239;-84
2023/07/04 03:29:39;;;;;;;2.87;1.57;;;;;;;;;;4969761;28;20201;-84
2023/07/04 03:32:08;;;;;;;3.20;1.40;;;;;;;;;;4970443;28;20219;-85
2023/07/04 03:34:37;;;;;;;2.90;1.20;;;;;;;;;;4969904;28;20269;-85
2023/07/04 03:37:05;;;;;;;0.93;0.90;;;;;;;;;;4969924;28;20209;-85
2023/07/04 03:39:34;;;;;;;1.53;1.30;;;;;;;;;;4970426;28;20204;-85
2023/07/04 03:42:02;;;;;;;2.07;1.10;;;;;;;;;;4970610;28;20211;-85
2023/07/04 03:44:32;;;;;;;1.70;0.93;;;;;;;;;;4970042;28;20201;-85
2023/07/04 03:47:01;;;;;;;6.13;1.40;;;;;;;;;;4969710;28;20204;-85
2023/07/04 03:49:29;;;;;;;0.77;0.77;;;;;;;;;;4969975;28;20209;-85
2023/07/04 03:51:57;;;;;;;4.20;2.20;;;;;;;;;;4969458;28;20212;-85
2023/07/04 03:54:26;;;;;;;2.23;1.63;;;;;;;;;;4969415;28;20251;-85
2023/07/04 03:56:54;;;;;;;3.50;1.60;;;;;;;;;;4969673;28;20205;-85
2023/07/04 03:59:23;;;;;;;5.20;1.80;;;;;;;;;;4969991;28;20209;-85
2023/07/04 04:01:53;;;;;;;0.67;0.67;;;;;;;;;;4969597;28;20239;-85
2023/07/04 04:04:21;;;;;;;4.00;1.67;;;;;;;;;;4969525;28;20207;-85
2023/07/04 04:06:51;;;;;;;8.47;1.30;;;;;;;;;;4970271;28;20278;-85
2023/07/04 04:09:20;;;;;;;4.67;1.50;;;;;;;;;;4973331;28;20208;-85
2023/07/04 04:11:48;;;;;;;3.10;1.60;;;;;;;;;;4972374;28;20204;-85
2023/07/04 04:14:17;;;;;;;3.50;1.33;;;;;;;;;;4973072;28;20229;-85
2023/07/04 04:16:45;;;;;;;4.37;1.17;;;;;;;;;;4973595;28;20215;-85
2023/07/04 04:19:15;;;;;;;5.10;1.83;;;;;;;;;;4972569;28;20209;-85
2023/07/04 04:21:44;;;;;;;4.80;2.47;;;;;;;;;;4972144;28;20205;-87
2023/07/04 04:24:12;;;;;;;3.13;1.80;;;;;;;;;;4973197;28;20245;-85
2023/07/04 04:26:43;;;;;;;4.43;1.60;;;;;;;;;;4972597;28;20205;-85
2023/07/04 04:29:13;;;;;;;5.63;1.43;;;;;;;;;;4972358;28;20197;-85
2023/07/04 04:31:42;;;;;;;2.20;1.97;;;;;;;;;;4973064;28;20208;-85
2023/07/04 04:34:11;;;;;;;1.90;1.23;;;;;;;;;;4973133;28;20243;-84
2023/07/04 04:36:41;;;;;;;3.80;2.10;;;;;;;;;;4972611;28;20212;-87
2023/07/04 04:39:10;;;;;;;4.77;2.07;;;;;;;;;;4973163;28;20208;-87
2023/07/04 04:41:38;;;;;;;1.93;1.30;;;;;;;;;;4973494;28;20239;-87
2023/07/04 04:44:07;;;;;;;3.13;1.50;;;;;;;;;;4973557;28;20213;-87
2023/07/04 04:46:35;;;;;;;4.67;1.87;;;;;;;;;;4973069;28;20211;-87
2023/07/04 04:49:04;;;;;;;2.33;1.10;;;;;;;;;;4973181;28;20205;-87
2023/07/04 04:51:33;;;;;;;4.13;1.33;;;;;;;;;;4973863;28;20270;-87
2023/07/04 04:54:03;;;;;;;1.70;0.73;;;;;;;;;;4973034;28;20208;-87
2023/07/04 04:56:33;;;;;;;1.17;1.13;;;;;;;;;;4973414;28;20211;-87
2023/07/04 04:59:03;;;;;;;4.77;1.93;;;;;;;;;;4973887;28;20208;-87
2023/07/04 05:01:31;;;;;;;1.40;1.30;;;;;;;;;;4972424;28;20244;-86
2023/07/04 05:04:00;;;;;;;2.43;0.80;;;;;;;;;;4973200;28;20192;-87
2023/07/04 05:06:29;;;;;;;10.27;1.80;;;;;;;;;;4974600;28;20218;-87
2023/07/04 05:08:57;;;;;;;3.70;1.50;;;;;;;;;;4973932;28;20210;-87
2023/07/04 05:11:29;;;;;;;0.70;0.70;;;;;;;;;;4973141;28;20252;-87
2023/07/04 05:13:58;;;;;;;7.73;2.40;;;;;;;;;;4973504;28;20216;-86
2023/07/04 05:16:26;;;;;;;1.20;0.83;;;;;;;;;;4973114;28;20262;-86
2023/07/04 05:18:55;;;;;;;1.57;1.47;;;;;;;;;;4972292;28;20208;-87
2023/07/04 05:21:25;;;;;;;8.90;1.77;;;;;;;;;;4973438;28;20210;-87
2023/07/04 05:23:54;;;;;;;3.37;1.90;;;;;;;;;;4972944;28;20204;-87
2023/07/04 05:26:23;;;;;;;3.00;1.07;;;;;;;;;;4973002;28;20199;-86
2023/07/04 05:28:54;;;;;;;0.47;0.47;;;;;;;;;;4973020;28;20219;-87
2023/07/04 05:31:24;;;;;;;1.47;1.40;;;;;;;;;;4972868;28;20212;-87
2023/07/04 05:33:53;;;;;;;0.57;0.57;;;;;;;;;;4973118;28;20214;-87
2023/07/04 05:36:22;;;;;;;1.47;1.07;;;;;;;;;;4973093;28;20366;-87
2023/07/04 05:38:51;;;;;;;3.30;1.27;;;;;;;;;;4972372;28;20228;-85
2023/07/04 05:41:20;;;;;;;6.57;1.97;;;;;;;;;;4971696;28;20272;-85
2023/07/04 05:43:50;;;;;;;2.00;1.90;;;;;;;;;;4971276;28;20212;-84
2023/07/04 05:46:20;;;;;;;9.57;1.97;;;;;;;;;;4971232;28;20279;-85
2023/07/04 05:48:49;;;;;;;1.97;1.63;;;;;;;;;;4971625;28;20262;-85
2023/07/04 05:51:18;;;;;;;5.00;1.23;;;;;;;;;;4971886;28;20207;-84
2023/07/04 05:53:48;;;;;;;4.70;1.33;;;;;;;;;;4971645;28;20212;-85
2023/07/04 05:56:17;;;;;;;6.93;1.87;;;;;;;;;;4971157;28;20224;-85
2023/07/04 05:58:46;;;;;;;2.00;1.53;;;;;;;;;;4971610;28;20200;-85
2023/07/04 06:01:16;;;;;;;3.70;1.20;;;;;;;;;;4971376;28;20212;-85
2023/07/04 06:03:46;;;;;;;6.63;2.43;;;;;;;;;;4971264;28;20254;-84
2023/07/04 06:06:19;;;;;;;1.83;1.33;;;;;;;;;;4971796;28;20207;-85
2023/07/04 06:08:48;;;;;;;6.70;1.50;;;;;;;;;;4971614;28;20212;-85
2023/07/04 06:11:16;;;;;;;6.23;2.47;;;;;;;;;;4971826;28;20205;-83
2023/07/04 06:13:45;;;;;;;7.40;2.23;;;;;;;;;;4970800;28;20205;-85
2023/07/04 06:16:14;;;;;;;2.60;1.23;;;;;;;;;;4971239;28;20230;-85
2023/07/04 06:18:43;;;;;;;2.77;1.57;;;;;;;;;;4971309;28;20202;-85
2023/07/04 06:21:14;;;;;;;3.23;1.00;;;;;;;;;;4971446;28;20225;-85
2023/07/04 06:23:46;;;;;;;4.43;1.07;;;;;;;;;;4971340;28;20306;-85
2023/07/04 06:26:15;;;;;;;11.03;2.37;;;;;;;;;;4972035;28;20208;-85
2023/07/04 06:28:43;;;;;;;1.83;1.63;;;;;;;;;;4971559;28;20224;-85
2023/07/04 06:31:12;;;;;;;2.93;1.07;;;;;;;;;;4970708;28;20275;-85
2023/07/04 06:33:41;;;;;;;2.73;1.73;;;;;;;;;;4971711;28;20271;-85
2023/07/04 06:36:10;;;;;;;6.07;2.30;;;;;;;;;;4971647;28;20221;-85
2023/07/04 06:38:41;;;;;;;0.60;0.60;;;;;;;;;;4971576;28;20209;-85
2023/07/04 06:41:13;;;;;;;3.50;1.73;;;;;;;;;;4971423;28;20214;-85
2023/07/04 06:43:44;;;;;;;2.83;2.17;;;;;;;;;;4971601;28;20207;-86
2023/07/04 06:46:15;;;;;;;4.20;2.00;;;;;;;;;;4971596;28;20215;-85
2023/07/04 06:48:43;;;;;;;3.27;0.87;;;;;;;;;;4970866;28;20248;-85
2023/07/04 06:51:16;;;;;;;2.73;1.67;;;;;;;;;;4972190;28;20206;-85
2023/07/04 06:53:47;;;;;;;4.97;1.73;;;;;;;;;;4971191;28;20213;-86
2023/07/04 06:56:17;;;;;;;6.27;2.20;;;;;;;;;;4970829;28;20270;-86
2023/07/04 06:58:48;;;;;;;10.50;1.90;;;;;;;;;;4971434;28;20217;-86
2023/07/04 07:01:17;;;;;;;5.03;1.80;;;;;;;;;;4971041;28;20292;-86
2023/07/04 07:03:45;;;;;;;4.43;1.87;;;;;;;;;;4970779;28;20205;-87
2023/07/04 07:06:15;;;;;;;2.57;0.83;;;;;;;;;;4971058;28;20210;-86
2023/07/04 07:08:43;;;;;;;6.57;2.50;;;;;;;;;;4971844;28;20209;-87
2023/07/04 07:11:14;;;;;;;1.33;1.23;;;;;;;;;;4971636;28;20299;-86
2023/07/04 07:13:44;;;;;;;9.70;1.87;;;;;;;;;;4970799;28;20208;-85
2023/07/04 07:16:14;;;;;;;8.23;1.90;;;;;;;;;;4971148;28;20221;-85
2023/07/04 07:18:44;;;;;;;3.17;1.90;;;;;;;;;;4971085;28;20205;-87
2023/07/04 07:21:14;;;;;;;3.23;1.40;;;;;;;;;;4971133;28;20258;-86
2023/07/04 07:23:44;;;;;;;5.33;2.27;;;;;;;;;;4970947;28;20208;-86
2023/07/04 07:26:19;;;;;;;8.30;2.00;;;;;;;;;;4964832;28;20203;-87
2023/07/04 07:28:50;;;;;;;6.80;1.80;;;;;;;;;;4955884;28;20324;-87
2023/07/04 07:31:25;;;;;;;6.67;2.50;;;;;;;;;;4955185;28;20197;-88
2023/07/04 07:33:59;;;;;;;1.87;1.00;;;;;;;;;;4959801;28;20231;-86
2023/07/04 07:36:30;;;;;;;5.83;1.47;;;;;;;;;;4960285;28;20316;-86
2023/07/04 07:39:00;;;;;;;5.57;3.00;;;;;;;;;;4957369;28;20207;-86
2023/07/04 07:41:33;;;;;;;5.97;1.33;;;;;;;;;;4959008;28;20214;-82
2023/07/04 07:44:04;;;;;;;6.67;1.87;;;;;;;;;;4966971;28;20312;-86
2023/07/04 07:46:41;;;;;;;3.03;1.40;;;;;;;;;;4967273;28;20212;-87
2023/07/04 07:49:10;;;;;;;4.33;1.87;;;;;;;;;;4963121;28;20210;-86
2023/07/04 07:51:42;;;;;;;4.40;1.37;;;;;;;;;;4966925;28;20201;-86
2023/07/04 07:54:11;;;;;;;4.27;0.93;;;;;;;;;;4966709;28;20207;-85
2023/07/04 07:56:44;;;;;;;2.40;1.13;;;;;;;;;;4968744;28;20218;-86
2023/07/04 07:59:13;;;;;;;3.33;1.43;;;;;;;;;;4967815;28;20216;-85
2023/07/04 08:01:42;;;;;;;2.67;1.57;;;;;;;;;;4966443;28;20320;-86
2023/07/04 08:04:10;;;;;;;4.20;1.93;;;;;;;;;;4964666;28;20209;-85
2023/07/04 08:06:45;;;;;;;11.37;3.43;;;;;;;;;;4966393;28;20196;-84
2023/07/04 08:09:15;;;;;;;5.87;1.70;;;;;;;;;;4964758;28;20217;-85
2023/07/04 08:11:46;;;;;;;4.73;3.10;;;;;;;;;;4967651;28;20300;-85
2023/07/04 08:14:17;;;;;;;6.67;2.43;;;;;;;;;;4969408;28;20215;-85
2023/07/04 08:16:48;;;;;;;5.47;1.87;;;;;;;;;;4985834;28;20231;-85
2023/07/04 08:19:18;;;;;;;5.27;1.87;;;;;;;;;;4970918;28;20237;-86
2023/07/04 08:21:49;;;;;;;2.83;1.37;;;;;;;;;;4973451;28;20209;-89
2023/07/04 08:24:32;;;;;;;4.47;0.80;;;;;;;;;;4974038;28;20209;-87
2023/07/04 08:27:04;;;;;;;8.83;2.07;;;;;;;;;;4967791;28;20200;-85
2023/07/04 08:29:32;;;;;;;1.50;1.07;;;;;;;;;;4966410;28;20220;-84
2023/07/04 08:32:01;;;;;;;2.83;1.10;;;;;;;;;;4968195;28;20195;-84
2023/07/04 08:34:30;;;;;;;5.40;2.07;;;;;;;;;;4971151;28;20204;-85
2023/07/04 08:36:59;;;;;;;6.27;2.10;;;;;;;;;;4965820;28;20264;-86
2023/07/04 08:39:28;;;;;;;5.27;1.20;;;;;;;;;;4970752;28;20209;-86
2023/07/04 08:41:59;;;;;;;3.10;0.87;;;;;;;;;;4974077;28;20212;-86
2023/07/04 08:44:33;;;;;;;2.90;1.43;;;;;;;;;;4967557;28;20220;-79
2023/07/04 08:47:01;;;;;;;0.77;0.77;;;;;;;;;;4964680;28;20204;-85
2023/07/04 08:49:34;;;;;;;2.30;1.53;;;;;;;;;;4966691;28;20210;-85
2023/07/04 08:52:06;;;;;;;7.10;2.23;;;;;;;;;;4964294;28;20222;-85
2023/07/04 08:54:35;;;;;;;6.07;1.83;;;;;;;;;;4967365;28;20297;-85
2023/07/04 08:57:07;;;;;;;5.83;2.27;;;;;;;;;;4963928;28;20227;-84
2023/07/04 08:59:40;;;;;;;3.43;1.13;;;;;;;;;;4961279;28;20218;-85
2023/07/04 09:02:28;;;;;;;4.83;2.17;;;;;;;;;;4964151;28;20245;-85
2023/07/04 09:05:02;;;;;;;5.83;1.80;;;;;;;;;;4962399;28;20295;-86
2023/07/04 09:07:39;;;;;;;3.60;1.90;;;;;;;;;;4968727;28;20232;-86
2023/07/04 09:10:15;;;;;;;8.73;2.63;;;;;;;;;;4969224;28;20234;-86
2023/07/04 09:12:43;;;;;;;5.10;1.60;;;;;;;;;;4966851;28;20212;-87
2023/07/04 09:15:22;;;;;;;9.30;3.23;;;;;;;;;;4963761;28;20224;-87
2023/07/04 09:17:58;;;;;;;4.70;1.63;;;;;;;;;;4964398;28;20263;-88
2023/07/04 09:20:58;;;;;;;5.07;2.30;;;;;;;;;;4965186;28;20216;-88
2023/07/04 09:23:27;;;;;;;6.10;2.00;;;;;;;;;;4969683;28;20216;-88
2023/07/04 09:26:03;;;;;;;9.30;2.37;;;;;;;;;;4969921;28;20222;-88
2023/07/04 09:28:43;;;;;;;3.30;1.97;;;;;;;;;;4968615;28;20217;-91
2023/07/04 09:31:16;;;;;;;4.50;1.60;;;;;;;;;;4970898;28;20221;-91
2023/07/04 09:33:48;;;;;;;5.30;1.40;;;;;;;;;;4968839;28;20233;-89
2023/07/04 09:36:20;;;;;;;2.47;1.40;;;;;;;;;;4968773;28;20202;-89
2023/07/04 09:39:10;;;;;;;3.10;1.63;;;;;;;;;;4978109;28;20271;-90
2023/07/04 09:41:41;;;;;;;3.43;2.00;;;;;;;;;;4976290;28;20197;-91
2023/07/04 09:44:44;;;;;;;7.23;2.30;;;;;;;;;;4979718;28;20210;-90
2023/07/04 09:47:23;;;;;;;5.37;2.20;;;;;;;;;;4975682;28;20204;-91
2023/07/04 09:50:26;;;;;;;3.80;2.00;;;;;;;;;;4969035;28;20234;-92
2023/07/04 09:53:11;;;;;;;7.97;2.60;;;;;;;;;;4943831;28;20213;-92
2023/07/04 09:55:44;;;;;;;6.10;1.70;;;;;;;;;;4964332;28;20220;-94
2023/07/04 09:58:18;;;;;;;3.10;1.67;;;;;;;;;;4967038;28;20248;-88
2023/07/04 10:01:01;;;;;;;3.60;2.00;;;;;;;;;;4963805;28;20297;-90
2023/07/04 10:03:32;;;;;;;2.30;1.90;;;;;;;;;;4961785;28;20253;-88
2023/07/04 10:06:02;;;;;;;1.50;1.37;;;;;;;;;;4963420;28;20262;-87
2023/07/04 10:08:58;;;;;;;12.17;2.17;;;;;;;;;;4974660;28;20256;-93
2023/07/04 10:11:32;;;;;;;5.37;1.80;;;;;;;;;;4974028;28;20242;-90
2023/07/04 10:14:10;;;;;;;4.73;1.70;;;;;;;;;;4959875;28;20192;-91
2023/07/04 10:16:47;;;;;;;11.67;2.17;;;;;;;;;;4961011;28;20238;-92
2023/07/04 10:19:19;;;;;;;5.90;1.63;;;;;;;;;;4961480;28;20224;-92
2023/07/04 10:21:56;;;;;;;0.93;0.90;;;;;;;;;;4964655;28;20205;-87
2023/07/04 10:24:25;;;;;;;8.20;2.30;;;;;;;;;;4959670;28;20400;-85
2023/07/04 10:27:02;;;;;;;3.10;1.10;;;;;;;;;;4955266;28;20213;-85
2023/07/04 10:29:49;;;;;;;;;;;;;;;;;;;;;
2023/07/04 10:32:21;;;;;;;4.23;1.43;;;;;;;;;;4963743;28;20204;-85
2023/07/04 10:34:53;;;;;;;5.73;1.40;;;;;;;;;;4964401;28;20204;-86
2023/07/04 10:37:31;;;;;;;3.50;3.20;;;;;;;;;;4965769;28;20231;-83
2023/07/04 10:40:04;;;;;;;1.73;1.40;;;;;;;;;;4966452;28;20208;-89
2023/07/04 10:43:01;;;;;;;1.23;0.80;;;;;;;;;;4967118;28;20203;-90
2023/07/04 10:45:48;;;;;;;2.93;1.17;;;;;;;;;;4965574;28;20239;-89
2023/07/04 10:51:46;;;;;;;3.67;2.00;;;;;;;;;;4979038;28;20206;-92
2023/07/04 10:54:15;;;;;;;3.97;1.90;;;;;;;;;;4964047;28;20214;-85
2023/07/04 10:56:45;;;;;;;2.27;1.43;;;;;;;;;;4969725;28;20302;-87
2023/07/04 10:59:17;;;;;;;9.47;2.97;;;;;;;;;;4961854;28;20218;-84
2023/07/04 11:01:48;;;;;;;3.23;1.50;;;;;;;;;;4963956;28;20283;-85
2023/07/04 11:04:20;;;;;;;5.57;1.87;;;;;;;;;;4962764;28;20199;-85
2023/07/04 11:06:55;;;;;;;7.73;2.13;;;;;;;;;;4966373;28;20226;-84
2023/07/04 11:09:24;;;;;;;2.50;1.77;;;;;;;;;;4961507;28;20208;-84
2023/07/04 11:12:01;;;;;;;2.73;2.00;;;;;;;;;;4967713;28;20265;-84
2023/07/04 11:14:31;;;;;;;2.80;2.30;;;;;;;;;;4965959;28;20294;-84
2023/07/04 11:17:03;;;;;;;3.73;1.53;;;;;;;;;;4958048;28;20207;-84
2023/07/04 11:19:34;;;;;;;1.93;1.57;;;;;;;;;;4964293;28;20214;-83
2023/07/04 11:22:17;;;;;;;3.03;2.67;;;;;;;;;;4962948;28;20214;-84
2023/07/04 11:24:47;;;;;;;3.20;0.90;;;;;;;;;;4960768;28;20400;-85
2023/07/04 11:27:16;;;;;;;1.57;1.10;;;;;;;;;;4966719;28;20234;-86
2023/07/04 11:29:48;;;;;;;4.93;1.63;;;;;;;;;;4966489;28;20214;-85
2023/07/04 11:32:20;;;;;;;2.90;1.57;;;;;;;;;;4968334;28;20300;-86
2023/07/04 11:34:50;;;;;;;4.57;1.70;;;;;;;;;;4961880;28;20211;-88
2023/07/04 11:37:24;;;;;;;3.20;1.30;;;;;;;;;;4977069;28;20206;-88
2023/07/04 11:39:54;;;;;;;3.30;1.53;;;;;;;;;;4976035;28;20254;-85
2023/07/04 11:42:24;;;;;;;4.80;1.57;;;;;;;;;;4981870;28;20208;-85
2023/07/04 11:44:56;;;;;;;1.43;1.20;;;;;;;;;;4975993;28;20208;-86
2023/07/04 11:47:35;;;;;;;0.67;0.67;;;;;;;;;;4964213;28;20212;-86
2023/07/04 11:50:18;;;;;;;5.50;1.63;;;;;;;;;;4964086;28;20267;-85
2023/07/04 11:52:54;;;;;;;3.10;1.23;;;;;;;;;;4963080;28;20211;-85
2023/07/04 11:55:24;;;;;;;1.70;1.13;;;;;;;;;;4962855;28;20215;-85
2023/07/04 11:58:00;;;;;;;2.10;1.17;;;;;;;;;;4970785;28;20261;-85
2023/07/04 12:00:47;;;;;;;5.37;1.20;;;;;;;;;;4967557;28;20217;-85
2023/07/04 12:03:34;;;;;;;2.10;1.50;;;;;;;;;;4963153;28;20244;-85
2023/07/04 12:06:03;;;;;;;3.60;2.00;;;;;;;;;;4964468;28;20210;-85
2023/07/04 12:08:36;;;;;;;3.23;1.57;;;;;;;;;;4990559;28;20203;-86
2023/07/04 12:11:09;;;;;;;3.10;1.23;;;;;;;;;;4989678;28;20213;-85
2023/07/04 12:13:39;;;;;;;6.60;1.80;;;;;;;;;;4989174;28;20221;-86
2023/07/04 12:16:07;;;;;;;4.33;1.60;;;;;;;;;;4989173;28;20218;-85
2023/07/04 12:18:39;;;;;;;6.43;3.30;;;;;;;;;;4989278;28;20230;-85
2023/07/04 12:21:09;;;;;;;1.70;1.53;;;;;;;;;;4989897;28;20204;-85
2023/07/04 12:23:39;;;;;;;5.40;1.67;;;;;;;;;;4989915;28;20321;-86
2023/07/04 12:26:08;;;;;;;7.33;2.03;;;;;;;;;;4988874;28;20202;-86
2023/07/04 12:28:37;;;;;;;5.93;2.70;;;;;;;;;;4990148;28;20298;-85
2023/07/04 12:31:06;;;;;;;4.60;2.10;;;;;;;;;;4993076;28;20209;-85
2023/07/04 12:33:40;;;;;;;2.93;1.23;;;;;;;;;;4992515;28;20217;-86
2023/07/04 12:36:11;;;;;;;0.80;0.70;;;;;;;;;;4991674;28;20197;-85
2023/07/04 12:38:42;;;;;;;3.63;1.30;;;;;;;;;;4992059;28;20224;-86
2023/07/04 12:41:11;;;;;;;2.33;1.90;;;;;;;;;;4991828;28;20202;-85
2023/07/04 12:43:40;;;;;;;7.00;2.23;;;;;;;;;;4992153;28;20206;-87
2023/07/04 12:46:11;;;;;;;5.30;2.17;;;;;;;;;;4992670;28;20206;-87
2023/07/04 12:48:43;;;;;;;7.00;1.63;;;;;;;;;;4992610;28;20194;-87
2023/07/04 12:51:16;;;;;;;4.17;1.30;;;;;;;;;;4991796;28;20208;-87
2023/07/04 12:53:47;;;;;;;4.23;2.20;;;;;;;;;;4992418;28;20298;-86
2023/07/04 12:56:16;;;;;;;7.63;1.57;;;;;;;;;;4992621;28;20204;-87
2023/07/04 12:58:45;;;;;;;25.47;1.60;;;;;;;;;;4992331;28;20230;-87
2023/07/04 13:01:18;;;;;;;2.23;2.07;;;;;;;;;;4992223;28;20276;-86
2023/07/04 13:03:55;;;;;;;1.70;0.97;;;;;;;;;;4992020;28;20203;-87
2023/07/04 13:06:24;;;;;;;7.40;1.30;;;;;;;;;;4992439;28;20196;-87
2023/07/04 13:08:55;;;;;;;3.13;1.33;;;;;;;;;;4992513;28;20289;-87
2023/07/04 13:11:24;;;;;;;4.50;1.63;;;;;;;;;;4992254;28;20211;-87
2023/07/04 13:14:05;;;;;;;4.63;3.03;;;;;;;;;;4992065;28;20208;-85
2023/07/04 13:16:34;;;;;;;3.87;1.40;;;;;;;;;;4992149;28;20244;-86
2023/07/04 13:19:16;;;;;;;6.77;1.93;;;;;;;;;;4991451;28;20298;-86
2023/07/04 13:21:45;;;;;;;1.33;1.23;;;;;;;;;;4992263;28;20217;-87
2023/07/04 13:24:31;;;;;;;7.17;1.70;;;;;;;;;;4992383;28;20209;-87
2023/07/04 13:27:13;;;;;;;6.73;2.20;;;;;;;;;;4991709;28;20206;-86
2023/07/04 13:29:53;;;;;;;7.63;2.53;;;;;;;;;;4992339;28;20248;-86
2023/07/04 13:32:41;;;;;;;5.93;1.93;;;;;;;;;;4991758;28;20203;-87
2023/07/04 13:35:26;;;;;;;0.93;0.77;;;;;;;;;;4991574;28;20202;-87
2023/07/04 13:37:55;;;;;;;2.33;1.47;;;;;;;;;;4992481;28;20211;-86
2023/07/04 13:40:45;;;;;;;7.57;2.10;;;;;;;;;;4991229;28;20225;-86
2023/07/04 13:43:14;;;;;;;2.17;1.37;;;;;;;;;;4991687;28;20209;-87
2023/07/04 13:45:46;;;;;;;7.17;1.57;;;;;;;;;;4991657;28;20258;-87
2023/07/04 13:48:15;;;;;;;3.20;0.93;;;;;;;;;;4991572;28;20254;-86
2023/07/04 13:50:44;;;;;;;2.87;1.80;;;;;;;;;;4992318;28;20196;-86
2023/07/04 13:53:13;;;;;;;2.70;1.20;;;;;;;;;;4991695;28;20200;-86
2023/07/04 13:55:44;;;;;;;1.57;1.30;;;;;;;;;;4991689;28;20201;-86
2023/07/04 13:58:13;;;;;;;1.70;1.30;;;;;;;;;;4992450;28;20208;-86
2023/07/04 14:00:42;;;;;;;1.30;0.90;;;;;;;;;;4991724;28;20225;-87
2023/07/04 14:03:14;;;;;;;1.50;0.80;;;;;;;;;;4991163;28;20244;-87
2023/07/04 14:05:45;;;;;;;6.90;2.00;;;;;;;;;;4992316;28;20272;-87
2023/07/04 14:08:23;;;;;;;5.80;1.90;;;;;;;;;;4991164;28;20205;-86
2023/07/04 14:11:00;;;;;;;2.93;1.83;;;;;;;;;;4991473;28;20194;-87
2023/07/04 14:13:29;;;;;;;1.83;1.30;;;;;;;;;;4991646;28;20228;-87
2023/07/04 14:15:59;;;;;;;0.83;0.83;;;;;;;;;;4991504;28;20300;-87
2023/07/04 14:18:30;;;;;;;2.00;1.30;;;;;;;;;;4990907;28;20229;-87
2023/07/04 14:21:20;;;;;;;5.90;1.23;;;;;;;;;;4990633;28;20229;-86
2023/07/04 14:23:49;;;;;;;1.10;0.70;;;;;;;;;;4991160;28;20213;-87
2023/07/04 14:26:20;;;;;;;3.10;1.30;;;;;;;;;;4991029;28;20212;-86
2023/07/04 14:28:51;;;;;;;1.73;1.63;;;;;;;;;;4990665;28;20227;-86
2023/07/04 14:31:20;;;;;;;1.87;1.50;;;;;;;;;;4990474;28;20228;-86
2023/07/04 14:33:49;;;;;;;3.60;3.20;;;;;;;;;;4991303;28;20230;-86
2023/07/04 14:36:19;;;;;;;2.73;1.10;;;;;;;;;;4990599;28;20203;-86
2023/07/04 14:38:47;;;;;;;4.00;1.27;;;;;;;;;;4991112;28;20207;-85
2023/07/04 14:41:16;;;;;;;3.40;1.30;;;;;;;;;;4990497;28;20234;-85
2023/07/04 14:43:49;;;;;;;1.33;1.10;;;;;;;;;;4990604;28;20209;-86
2023/07/04 14:46:17;;;;;;;2.20;0.83;;;;;;;;;;4991334;28;20216;-85
2023/07/04 14:48:46;;;;;;;0.87;0.83;;;;;;;;;;4990618;28;20203;-86
2023/07/04 14:51:15;;;;;;;3.73;1.60;;;;;;;;;;4990144;28;20224;-86
2023/07/04 14:53:44;;;;;;;5.67;1.20;;;;;;;;;;4990309;28;20210;-86
2023/07/04 14:56:13;;;;;;;1.70;1.20;;;;;;;;;;4990882;28;20200;-86
2023/07/04 14:58:42;;;;;;;3.33;1.70;;;;;;;;;;4990807;28;20288;-86
2023/07/04 15:01:16;;;;;;;1.37;0.83;;;;;;;;;;4989927;28;20230;-86
2023/07/04 15:03:45;;;;;;;2.57;1.03;;;;;;;;;;4990256;28;20234;-86
2023/07/04 15:06:14;;;;;;;2.17;1.13;;;;;;;;;;4990291;28;20206;-86
2023/07/04 15:08:42;;;;;;;6.50;2.37;;;;;;;;;;4990194;28;20201;-84
2023/07/04 15:11:11;;;;;;;3.40;1.60;;;;;;;;;;4989837;28;20215;-85
2023/07/04 15:13:39;;;;;;;1.67;1.10;;;;;;;;;;4989849;28;20238;-84